createdAt,value
2018-04-28T00:00:27.872Z,9.48
2018-04-28T00:02:55.312Z,9.80
2018-04-28T00:05:22.776Z,12.57
2018-04-28T00:07:50.232Z,14.23
2018-04-28T00:10:17.652Z,13.23
2018-04-28T00:12:53.032Z,13.02
2018-04-28T00:15:20.484Z,13.00
2018-04-28T00:17:47.932Z,11.10
2018-04-28T00:20:19.396Z,11.60
2018-04-28T00:23:04.535Z,12.00
2018-04-28T00:25:34.575Z,10.38
2018-04-28T00:28:02.870Z,9.90
2018-04-28T00:30:31.899Z,11.30
2018-04-28T00:33:01.657Z,11.50
2018-04-28T00:35:29.683Z,10.70
2018-04-28T00:37:59.855Z,11.33
2018-04-28T00:40:28.860Z,11.85
2018-04-28T00:42:57.320Z,12.30
2018-04-28T00:45:40.392Z,12.50
2018-04-28T00:48:15.272Z,12.57
2018-04-28T00:50:43.656Z,10.80
2018-04-28T00:53:11.103Z,10.30
2018-04-28T00:55:38.555Z,11.00
2018-04-28T00:58:11.659Z,11.23
2018-04-28T01:00:59.896Z,11.07
2018-04-28T01:03:31.231Z,11.43
2018-04-28T01:05:59.416Z,11.65
2018-04-28T01:08:30.566Z,11.80
2018-04-28T01:11:00.480Z,11.80
2018-04-28T01:13:33.701Z,11.10
2018-04-28T01:16:01.148Z,12.00
2018-04-28T01:18:28.581Z,11.00
2018-04-28T01:21:01.866Z,12.23
2018-04-28T01:23:45.921Z,11.35
2018-04-28T01:29:25.796Z,11.30
2018-04-28T01:31:55.204Z,11.80
2018-04-28T01:34:29.327Z,10.82
2018-04-28T01:36:58.508Z,11.43
2018-04-28T01:39:42.811Z,11.40
2018-04-28T01:42:23.612Z,11.50
2018-04-28T01:44:57.651Z,11.55
2018-04-28T01:47:25.198Z,11.07
2018-04-28T01:50:09.304Z,12.07
2018-04-28T01:52:42.332Z,14.80
2018-04-28T01:58:16.874Z,11.68
2018-04-28T02:00:47.124Z,11.67
2018-04-28T02:03:14.577Z,11.20
2018-04-28T02:06:06.664Z,12.30
2018-04-28T02:08:34.098Z,11.50
2018-04-28T02:11:03.107Z,11.88
2018-04-28T02:13:36.301Z,10.85
2018-04-28T02:16:16.787Z,11.82
2018-04-28T02:18:58.672Z,12.60
2018-04-28T02:21:32.126Z,11.85
2018-04-28T02:24:10.184Z,12.30
2018-04-28T02:26:50.331Z,11.65
2018-04-28T02:29:17.875Z,11.10
2018-04-28T02:31:47.076Z,11.45
2018-04-28T02:37:31.464Z,11.98
2018-04-28T02:43:06.104Z,11.52
2018-04-28T02:48:50.366Z,11.77
2018-04-28T02:51:39.353Z,10.60
2018-04-28T02:54:22.673Z,10.48
2018-04-28T02:59:47.404Z,10.80
2018-04-28T03:02:24.744Z,11.50
2018-04-28T03:04:56.807Z,11.05
2018-04-28T03:07:39.109Z,11.52
2018-04-28T03:12:59.336Z,10.60
2018-04-28T03:15:26.792Z,10.93
2018-04-28T03:17:56.017Z,12.20
2018-04-28T03:20:24.958Z,11.50
2018-04-28T03:22:53.168Z,10.83
2018-04-28T03:25:28.169Z,11.30
2018-04-28T03:28:07.403Z,9.90
2018-04-28T03:30:36.716Z,10.93
2018-04-28T03:35:57.288Z,11.02
2018-04-28T03:39:00.013Z,11.00
2018-04-28T03:41:31.964Z,9.20
2018-04-28T03:46:50.664Z,10.95
2018-04-28T03:49:24.065Z,11.10
2018-04-28T03:52:02.348Z,10.65
2018-04-28T03:54:40.412Z,10.40
2018-04-28T03:57:33.520Z,10.90
2018-04-28T04:00:12.960Z,10.50
2018-04-28T04:02:53.219Z,11.27
2018-04-28T04:05:26.725Z,11.10
2018-04-28T04:07:54.836Z,11.48
2018-04-28T04:10:28.244Z,10.68
2018-04-28T04:13:07.568Z,10.43
2018-04-28T04:15:46.805Z,10.07
2018-04-28T04:18:26.240Z,10.40
2018-04-28T04:21:04.496Z,10.35
2018-04-28T04:23:40.648Z,10.07
2018-04-28T04:26:11.596Z,10.30
2018-04-28T04:31:41.636Z,10.82
2018-04-28T04:34:09.098Z,10.70
2018-04-28T04:36:55.383Z,10.20
2018-04-28T04:39:38.704Z,10.77
2018-04-28T04:42:11.077Z,9.75
2018-04-28T04:44:43.344Z,10.50
2018-04-28T04:47:22.757Z,10.00
2018-04-28T04:50:02.310Z,9.90
2018-04-28T04:52:33.778Z,10.30
2018-04-28T04:55:07.189Z,9.82
2018-04-28T05:00:53.992Z,9.45
2018-04-28T05:03:32.401Z,10.03
2018-04-28T05:06:11.852Z,10.60
2018-04-28T05:08:55.968Z,9.73
2018-04-28T05:11:49.124Z,9.77
2018-04-28T05:14:23.272Z,9.90
2018-04-28T05:17:21.240Z,10.35
2018-04-28T05:20:11.445Z,9.98
2018-04-28T05:22:38.886Z,9.75
2018-04-28T05:28:08.048Z,13.93
2018-04-28T05:30:39.353Z,9.37
2018-04-28T05:33:12.688Z,12.10
2018-04-28T05:35:45.823Z,9.80
2018-04-28T05:41:15.401Z,9.40
2018-04-28T05:46:56.756Z,9.88
2018-04-28T05:49:47.868Z,9.65
2018-04-28T05:52:27.110Z,10.38
2018-04-28T05:57:55.540Z,8.55
2018-04-28T06:00:28.995Z,8.32
2018-04-28T06:02:58.272Z,9.00
2018-04-28T06:05:29.459Z,9.73
2018-04-28T06:08:17.266Z,9.80
2018-04-28T06:11:18.474Z,9.18
2018-04-28T06:13:57.683Z,10.07
2018-04-28T06:16:31.352Z,10.27
2018-04-28T06:18:59.685Z,9.35
2018-04-28T06:21:27.194Z,10.10
2018-04-28T06:23:54.651Z,10.13
2018-04-28T06:26:22.093Z,9.95
2018-04-28T06:28:49.544Z,9.10
2018-04-28T06:31:17.109Z,9.80
2018-04-28T06:33:44.656Z,10.77
2018-04-28T06:36:12.072Z,20.90
2018-04-28T06:38:40.284Z,10.20
2018-04-28T06:41:07.762Z,10.02
2018-04-28T06:43:35.220Z,10.10
2018-04-28T06:46:02.673Z,9.63
2018-04-28T06:48:30.112Z,9.88
2018-04-28T06:50:57.561Z,9.65
2018-04-28T06:53:25.053Z,11.12
2018-04-28T06:55:52.484Z,10.45
2018-04-28T06:58:19.942Z,10.30
2018-04-28T07:00:47.395Z,9.60
2018-04-28T07:03:14.837Z,8.60
2018-04-28T07:05:42.323Z,9.20
2018-04-28T07:08:09.785Z,9.38
2018-04-28T07:10:37.215Z,9.33
2018-04-28T07:13:04.722Z,9.70
2018-04-28T07:15:32.260Z,9.15
2018-04-28T07:17:59.725Z,10.20
2018-04-28T07:20:27.164Z,9.27
2018-04-28T07:22:54.596Z,9.55
2018-04-28T07:25:22.055Z,9.65
2018-04-28T07:27:49.470Z,9.63
2018-04-28T07:30:17.680Z,10.02
2018-04-28T07:32:45.120Z,10.05
2018-04-28T07:35:12.609Z,9.63
2018-04-28T07:37:40.762Z,10.40
2018-04-28T07:40:08.209Z,11.15
2018-04-28T07:42:35.644Z,10.63
2018-04-28T07:45:03.847Z,9.90
2018-04-28T07:47:31.307Z,9.30
2018-04-28T07:49:58.740Z,9.52
2018-04-28T07:52:26.941Z,9.40
2018-04-28T07:54:54.383Z,9.32
2018-04-28T07:57:21.854Z,9.40
2018-04-28T07:59:49.328Z,9.63
2018-04-28T08:02:16.770Z,9.77
2018-04-28T08:04:49.263Z,9.55
2018-04-28T08:07:16.705Z,10.20
2018-04-28T08:09:44.189Z,10.23
2018-04-28T08:12:11.621Z,9.88
2018-04-28T08:14:39.066Z,10.10
2018-04-28T08:17:06.508Z,9.88
2018-04-28T08:19:33.949Z,10.45
2018-04-28T08:22:02.165Z,9.93
2018-04-28T08:24:29.608Z,10.57
2018-04-28T08:26:57.030Z,9.20
2018-04-28T08:29:25.959Z,10.13
2018-04-28T08:31:53.390Z,9.95
2018-04-28T08:34:20.834Z,8.80
2018-04-28T08:36:49.217Z,9.50
2018-04-28T08:39:16.568Z,8.93
2018-04-28T08:41:44.772Z,8.80
2018-04-28T08:44:12.227Z,8.63
2018-04-28T08:46:39.700Z,9.50
2018-04-28T08:49:07.160Z,10.00
2018-04-28T08:51:36.286Z,9.70
2018-04-28T08:54:05.253Z,10.60
2018-04-28T08:56:34.252Z,10.68
2018-04-28T08:59:01.657Z,11.23
2018-04-28T09:01:29.123Z,11.43
2018-04-28T09:03:56.573Z,11.02
2018-04-28T09:06:24.099Z,11.18
2018-04-28T09:08:51.614Z,12.10
2018-04-28T09:11:19.060Z,12.02
2018-04-28T09:13:46.508Z,12.68
2018-04-28T09:16:14.052Z,12.25
2018-04-28T09:18:41.479Z,13.05
2018-04-28T09:21:09.793Z,12.57
2018-04-28T09:23:37.208Z,12.85
2018-04-28T09:26:05.480Z,12.07
2018-04-28T09:28:33.724Z,12.03
2018-04-28T09:31:01.180Z,11.52
2018-04-28T09:33:28.642Z,11.23
2018-04-28T09:35:56.081Z,11.30
2018-04-28T09:38:23.548Z,11.80
2018-04-28T09:40:50.997Z,12.60
2018-04-28T09:43:18.434Z,11.90
2018-04-28T09:45:45.872Z,11.85
2018-04-28T09:48:13.312Z,11.70
2018-04-28T09:50:41.518Z,11.95
2018-04-28T09:53:08.952Z,11.27
2018-04-28T09:55:36.402Z,10.75
2018-04-28T09:58:05.628Z,10.20
2018-04-28T10:00:38.845Z,9.23
2018-04-28T10:03:06.380Z,8.40
2018-04-28T10:05:33.815Z,8.60
2018-04-28T10:08:01.257Z,9.40
2018-04-28T10:10:29.477Z,8.80
2018-04-28T10:12:56.900Z,8.63
2018-04-28T10:15:24.480Z,8.80
2018-04-28T10:17:51.891Z,8.80
2018-04-28T10:20:20.191Z,8.30
2018-04-28T10:22:47.584Z,9.43
2018-04-28T10:25:15.045Z,9.10
2018-04-28T10:27:42.476Z,7.72
2018-04-28T10:30:09.929Z,6.80
2018-04-28T10:32:37.429Z,6.32
2018-04-28T10:35:04.891Z,6.70
2018-04-28T10:37:32.506Z,5.82
2018-04-28T10:39:59.932Z,5.43
2018-04-28T10:42:28.138Z,4.82
2018-04-28T10:44:55.599Z,5.63
2018-04-28T10:47:23.024Z,5.60
2018-04-28T10:49:50.461Z,5.47
2018-04-28T10:52:18.798Z,5.32
2018-04-28T10:54:46.237Z,5.00
2018-04-28T10:57:13.671Z,5.20
2018-04-28T10:59:41.164Z,5.55
2018-04-28T11:02:08.728Z,5.80
2018-04-28T11:04:36.221Z,5.97
2018-04-28T11:07:03.844Z,5.75
2018-04-28T11:09:31.283Z,5.80
2018-04-28T11:11:58.732Z,6.07
2018-04-28T11:14:26.222Z,6.45
2018-04-28T11:16:53.666Z,6.53
2018-04-28T11:19:21.120Z,6.85
2018-04-28T11:21:48.592Z,6.72
2018-04-28T11:24:16.026Z,6.60
2018-04-28T11:26:43.474Z,7.03
2018-04-28T11:29:10.914Z,7.20
2018-04-28T11:31:38.376Z,9.43
2018-04-28T11:34:05.816Z,7.10
2018-04-28T11:36:34.013Z,7.18
2018-04-28T11:39:01.484Z,7.05
2018-04-28T11:41:28.931Z,7.40
2018-04-28T11:43:56.404Z,7.75
2018-04-28T11:46:23.848Z,7.22
2018-04-28T11:48:51.288Z,6.75
2018-04-28T11:51:18.736Z,6.62
2018-04-28T11:53:46.204Z,6.73
2018-04-28T11:56:13.788Z,7.03
2018-04-28T11:58:41.233Z,6.90
2018-04-28T12:01:08.709Z,6.90
2018-04-28T12:03:36.137Z,6.60
2018-04-28T12:06:03.586Z,6.68
2018-04-28T12:08:31.058Z,6.90
2018-04-28T12:10:58.508Z,6.40
2018-04-28T12:13:25.918Z,6.22
2018-04-28T12:15:54.116Z,6.97
2018-04-28T12:18:21.594Z,6.53
2018-04-28T12:20:49.068Z,6.07
2018-04-28T12:23:16.505Z,6.55
2018-04-28T12:25:43.971Z,6.00
2018-04-28T12:28:11.441Z,6.50
2018-04-28T12:30:38.878Z,6.55
2018-04-28T12:33:06.304Z,6.47
2018-04-28T12:35:33.753Z,6.28
2018-04-28T12:38:01.989Z,6.03
2018-04-28T12:40:29.437Z,6.20
2018-04-28T12:42:56.868Z,5.30
2018-04-28T12:45:24.300Z,5.93
2018-04-28T12:47:51.744Z,5.50
2018-04-28T12:50:19.952Z,5.45
2018-04-28T12:52:47.429Z,4.90
2018-04-28T12:55:14.852Z,5.25
2018-04-28T12:57:42.296Z,5.20
2018-04-28T13:00:10.507Z,5.20
2018-04-28T13:02:37.997Z,6.07
2018-04-28T13:05:05.430Z,5.68
2018-04-28T13:07:32.973Z,4.62
2018-04-28T13:10:00.452Z,4.82
2018-04-28T13:12:27.892Z,5.10
2018-04-28T13:14:55.327Z,5.18
2018-04-28T13:17:22.848Z,4.78
2018-04-28T13:19:50.232Z,5.10
2018-04-28T13:22:17.711Z,5.03
2018-04-28T13:24:45.158Z,5.43
2018-04-28T13:27:12.596Z,5.30
2018-04-28T13:29:40.035Z,5.57
2018-04-28T13:32:08.294Z,4.90
2018-04-28T13:34:36.548Z,5.30
2018-04-28T13:37:03.993Z,5.22
2018-04-28T13:39:31.457Z,4.90
2018-04-28T13:41:58.921Z,5.30
2018-04-28T13:44:26.340Z,5.20
2018-04-28T13:46:53.767Z,5.03
2018-04-28T13:49:21.978Z,4.80
2018-04-28T13:51:49.416Z,5.20
2018-04-28T13:54:16.899Z,4.60
2018-04-28T13:56:44.332Z,4.78
2018-04-28T13:59:11.835Z,4.90
2018-04-28T14:01:39.276Z,5.20
2018-04-28T14:04:06.748Z,5.10
2018-04-28T14:06:34.238Z,4.87
2018-04-28T14:09:01.616Z,5.30
2018-04-28T14:11:29.113Z,5.35
2018-04-28T14:13:56.585Z,5.50
2018-04-28T14:16:24.016Z,5.35
2018-04-28T14:18:51.459Z,5.30
2018-04-28T14:21:18.928Z,5.37
2018-04-28T14:23:46.372Z,5.43
2018-04-28T14:26:13.808Z,6.00
2018-04-28T14:28:41.286Z,6.00
2018-04-28T14:31:08.692Z,5.45
2018-04-28T14:33:36.913Z,5.43
2018-04-28T14:36:04.357Z,5.20
2018-04-28T14:38:31.817Z,5.53
2018-04-28T14:40:59.245Z,4.90
2018-04-28T14:43:27.457Z,5.25
2018-04-28T14:45:54.892Z,5.30
2018-04-28T14:48:22.333Z,6.10
2018-04-28T14:50:50.557Z,4.60
2018-04-28T14:53:18.009Z,5.85
2018-04-28T14:55:45.508Z,5.83
2018-04-28T14:58:12.943Z,5.78
2018-04-28T15:00:40.397Z,5.85
2018-04-28T15:03:07.840Z,5.72
2018-04-28T15:05:35.315Z,6.40
2018-04-28T15:08:02.843Z,6.07
2018-04-28T15:10:30.311Z,6.05
2018-04-28T15:12:57.772Z,5.15
2018-04-28T15:15:25.216Z,5.47
2018-04-28T15:17:52.668Z,5.68
2018-04-28T15:20:20.116Z,5.60
2018-04-28T15:22:47.558Z,5.07
2018-04-28T15:25:15.060Z,5.40
2018-04-28T15:27:42.532Z,5.30
2018-04-28T15:30:09.959Z,5.50
2018-04-28T15:32:37.401Z,7.40
2018-04-28T15:35:04.937Z,6.10
2018-04-28T15:37:34.073Z,6.43
2018-04-28T15:40:01.524Z,7.35
2018-04-28T15:42:29.072Z,6.72
2018-04-28T15:44:56.550Z,7.10
2018-04-28T15:47:24.087Z,6.67
2018-04-28T15:49:51.506Z,7.25
2018-04-28T15:52:18.940Z,7.10
2018-04-28T15:54:46.401Z,7.10
2018-04-28T15:57:13.908Z,7.32
2018-04-28T15:59:41.364Z,7.50
2018-04-28T16:02:08.825Z,7.35
2018-04-28T16:04:36.379Z,8.13
2018-04-28T16:07:03.851Z,7.80
2018-04-28T16:09:31.377Z,7.53
2018-04-28T16:11:58.782Z,8.20
2018-04-28T16:14:26.310Z,7.50
2018-04-28T16:16:53.747Z,7.60
2018-04-28T16:19:21.992Z,8.73
2018-04-28T16:21:49.631Z,8.38
2018-04-28T16:24:17.082Z,7.23
2018-04-28T16:26:44.616Z,6.30
2018-04-28T16:29:12.053Z,6.75
2018-04-28T16:31:39.522Z,7.00
2018-04-28T16:34:06.952Z,7.60
2018-04-28T16:36:35.144Z,6.93
2018-04-28T16:39:02.584Z,7.12
2018-04-28T16:41:30.032Z,7.30
2018-04-28T16:43:58.275Z,7.62
2018-04-28T16:46:25.692Z,8.00
2018-04-28T16:48:53.264Z,7.70
2018-04-28T16:51:20.679Z,7.30
2018-04-28T16:53:48.889Z,7.27
2018-04-28T16:56:16.473Z,7.40
2018-04-28T16:58:43.937Z,7.85
2018-04-28T17:01:11.464Z,7.22
2018-04-28T17:03:38.892Z,7.40
2018-04-28T17:06:06.478Z,6.80
2018-04-28T17:08:33.897Z,7.90
2018-04-28T17:11:02.104Z,6.65
2018-04-28T17:13:29.561Z,7.95
2018-04-28T17:15:56.993Z,8.00
2018-04-28T17:18:25.208Z,12.83
2018-04-28T17:20:52.656Z,22.48
2018-04-28T17:23:20.096Z,14.33
2018-04-28T17:25:47.557Z,7.65
2018-04-28T17:28:15.006Z,7.50
2018-04-28T17:30:42.495Z,10.02
2018-04-28T17:33:09.920Z,6.90
2018-04-28T17:35:37.410Z,8.15
2018-04-28T17:38:04.842Z,7.05
2018-04-28T17:40:32.328Z,7.05
2018-04-28T17:42:59.740Z,7.20
2018-04-28T17:45:27.188Z,38.88
2018-04-28T17:47:54.665Z,7.65
2018-04-28T17:50:22.091Z,7.90
2018-04-28T17:52:49.503Z,7.97
2018-04-28T17:55:16.975Z,7.43
2018-04-28T17:57:44.553Z,6.90
2018-04-28T18:00:12.765Z,6.65
2018-04-28T18:02:40.200Z,7.40
2018-04-28T18:05:08.403Z,6.75
2018-04-28T18:07:35.864Z,7.15
2018-04-28T18:10:03.416Z,6.10
2018-04-28T18:12:30.885Z,6.20
2018-04-28T18:14:58.331Z,7.30
2018-04-28T18:17:25.783Z,7.50
2018-04-28T18:19:53.238Z,6.53
2018-04-28T18:22:20.762Z,8.60
2018-04-28T18:24:48.199Z,12.37
2018-04-28T18:27:15.649Z,15.77
2018-04-28T18:29:43.108Z,16.42
2018-04-28T18:32:10.545Z,16.90
2018-04-28T18:34:37.993Z,15.65
2018-04-28T18:37:05.469Z,15.32
2018-04-28T18:39:32.927Z,15.43
2018-04-28T18:42:00.376Z,15.52
2018-04-28T18:44:27.906Z,15.10
2018-04-28T18:46:55.325Z,15.93
2018-04-28T18:49:23.532Z,18.20
2018-04-28T18:51:51.092Z,19.35
2018-04-28T18:54:18.448Z,21.27
2018-04-28T18:56:45.888Z,20.10
2018-04-28T18:59:13.343Z,19.30
2018-04-28T19:01:41.639Z,18.90
2018-04-28T19:04:09.105Z,18.87
2018-04-28T19:06:36.568Z,17.00
2018-04-28T19:09:04.032Z,18.20
2018-04-28T19:11:31.449Z,18.62
2018-04-28T19:13:58.880Z,16.90
2018-04-28T19:16:27.091Z,15.00
2018-04-28T19:18:54.529Z,14.13
2018-04-28T19:21:21.980Z,13.10
2018-04-28T19:23:49.415Z,9.65
2018-04-28T19:26:17.627Z,12.20
2018-04-28T19:28:45.060Z,12.70
2018-04-28T19:31:12.581Z,11.40
2018-04-28T19:33:40.704Z,11.40
2018-04-28T19:36:08.187Z,12.13
2018-04-28T19:38:35.625Z,13.73
2018-04-28T19:41:03.065Z,12.37
2018-04-28T19:43:30.521Z,12.20
2018-04-28T19:45:57.960Z,10.98
2018-04-28T19:48:26.218Z,12.10
2018-04-28T19:50:53.730Z,11.48
2018-04-28T19:53:21.155Z,11.48
2018-04-28T19:55:49.376Z,11.43
2018-04-28T19:58:16.817Z,11.37
2018-04-28T20:00:44.259Z,12.10
2018-04-28T20:03:11.725Z,10.75
2018-04-28T20:05:39.157Z,10.43
2018-04-28T20:08:06.651Z,9.80
2018-04-28T20:10:34.099Z,10.82
2018-04-28T20:13:01.553Z,10.60
2018-04-28T20:15:28.992Z,10.77
2018-04-28T20:17:56.439Z,9.68
2018-04-28T20:20:24.672Z,9.68
2018-04-28T20:23:03.986Z,10.02
2018-04-28T20:25:31.426Z,10.20
2018-04-28T20:27:58.879Z,10.98
2018-04-28T20:30:26.337Z,11.12
2018-04-28T20:32:53.772Z,10.90
2018-04-28T20:35:21.224Z,10.98
2018-04-28T20:37:49.448Z,11.20
2018-04-28T20:40:16.896Z,12.70
2018-04-28T20:42:44.560Z,12.02
2018-04-28T20:45:12.000Z,12.00
2018-04-28T20:47:39.457Z,11.73
2018-04-28T20:50:06.915Z,11.00
2018-04-28T20:52:34.473Z,12.50
2018-04-28T20:55:01.928Z,11.60
2018-04-28T20:57:29.364Z,11.43
2018-04-28T20:59:56.868Z,11.32
2018-04-28T21:02:24.327Z,12.35
2018-04-28T21:04:51.766Z,11.12
2018-04-28T21:07:19.315Z,12.02
2018-04-28T21:09:46.745Z,12.80
2018-04-28T21:12:14.203Z,11.83
2018-04-28T21:14:41.674Z,10.40
2018-04-28T21:17:09.139Z,10.52
2018-04-28T21:19:36.629Z,11.43
2018-04-28T21:22:04.072Z,9.90
2018-04-28T21:24:31.528Z,9.50
2018-04-28T21:26:58.968Z,10.10
2018-04-28T21:29:26.402Z,11.03
2018-04-28T21:31:53.839Z,11.55
2018-04-28T21:34:22.048Z,12.60
2018-04-28T21:36:49.588Z,13.02
2018-04-28T21:39:16.975Z,13.10
2018-04-28T21:41:44.433Z,13.20
2018-04-28T21:44:11.884Z,13.70
2018-04-28T21:46:39.329Z,11.18
2018-04-28T21:49:06.804Z,9.45
2018-04-28T21:51:34.260Z,7.70
2018-04-28T21:54:01.778Z,6.77
2018-04-28T21:56:29.261Z,7.65
2018-04-28T21:58:56.736Z,7.15
2018-04-28T22:01:24.225Z,7.32
2018-04-28T22:03:51.764Z,7.20
2018-04-28T22:06:19.212Z,8.00
2018-04-28T22:08:46.763Z,7.97
2018-04-28T22:11:14.231Z,8.20
2018-04-28T22:13:41.667Z,8.00
2018-04-28T22:16:09.104Z,8.52
2018-04-28T22:18:36.536Z,7.93
2018-04-28T22:21:04.753Z,8.95
2018-04-28T22:23:32.214Z,8.80
2018-04-28T22:25:59.632Z,9.10
2018-04-28T22:28:27.866Z,9.40
2018-04-28T22:30:55.308Z,9.30
2018-04-28T22:33:22.741Z,8.75
2018-04-28T22:35:50.176Z,8.88
2018-04-28T22:38:17.604Z,8.90
2018-04-28T22:40:45.042Z,9.25
2018-04-28T22:43:12.594Z,8.93
2018-04-28T22:45:40.023Z,8.95
2018-04-28T22:48:07.508Z,8.80
2018-04-28T22:50:34.961Z,9.30
2018-04-28T22:53:02.493Z,9.55
2018-04-28T22:55:29.997Z,10.10
2018-04-28T22:57:57.480Z,10.10
2018-04-28T23:00:24.965Z,9.82
2018-04-28T23:02:52.389Z,9.50
2018-04-28T23:05:20.633Z,10.25
2018-04-28T23:07:48.172Z,9.93
2018-04-28T23:10:15.609Z,10.40
2018-04-28T23:12:43.067Z,10.20
2018-04-28T23:15:10.574Z,10.45
2018-04-28T23:17:38.001Z,10.50
2018-04-28T23:20:05.452Z,10.20
2018-04-28T23:22:32.891Z,11.00
2018-04-28T23:25:00.392Z,10.80
2018-04-28T23:27:27.816Z,10.60
2018-04-28T23:29:55.249Z,11.90
2018-04-28T23:32:22.819Z,11.15
2018-04-28T23:34:50.263Z,11.60
2018-04-28T23:37:17.743Z,11.90
2018-04-28T23:39:45.175Z,12.00
2018-04-28T23:42:13.493Z,12.18
2018-04-28T23:44:40.927Z,12.50
2018-04-28T23:47:08.400Z,12.30
2018-04-28T23:49:35.933Z,11.48
2018-04-28T23:52:03.380Z,12.40
2018-04-28T23:54:30.868Z,13.18
2018-04-28T23:56:58.312Z,13.20
2018-04-28T23:59:25.776Z,12.95
